Time;durP1;ratioP1;P1;durP2;ratioP2;P2;SDS_P1;SDS_P2;PMS_P1;PMS_P2;Temp;Humidity;BMP_temperature;BMP_pressure;BME280_temperature;BME280_humidity;BME280_pressure;Samples;Min_cycle;Max_cycle;Signal;HPM_P1;HPM_P2
2024/01/15 00:01:03;;;;;;;;;;;-1.30;1.00;;;;;;5038450;28;19963;-74
2024/01/15 00:03:29;;;;;;;;;;;-1.30;1.00;;;;;;5037758;28;19931;-75
2024/01/15 00:05:54;;;;;;;;;;;-1.40;1.00;;;;;;5047747;28;19905;-75
2024/01/15 00:08:30;;;;;;;;;;;-1.30;1.00;;;;;;5051591;28;19973;-78
2024/01/15 00:10:55;;;;;;;;;;;-1.30;1.00;;;;;;5042062;28;19935;-78
2024/01/15 00:16:50;;;;;;;;;;;-1.40;1.00;;;;;;5037806;28;20414;-78
2024/01/15 00:19:36;;;;;;;;;;;-1.50;1.00;;;;;;5047470;28;20348;-78
2024/01/15 00:22:36;;;;;;;;;;;-1.30;1.00;;;;;;5041216;28;19915;-78
2024/01/15 00:25:29;;;;;;;;;;;-1.30;1.00;;;;;;5042163;28;19911;-78
2024/01/15 00:28:23;;;;;;;;;;;-1.30;1.00;;;;;;5049372;28;19912;-78
2024/01/15 00:31:24;;;;;;;;;;;-1.20;1.00;;;;;;5048377;28;19913;-79
2024/01/15 00:33:54;;;;;;;;;;;-1.20;1.00;;;;;;5046312;28;19904;-78
2024/01/15 00:36:30;;;;;;;;;;;-1.40;1.00;;;;;;5037448;28;19999;-78
2024/01/15 00:38:55;;;;;;;;;;;-1.50;1.00;;;;;;5037928;28;19912;-79
2024/01/15 00:41:21;;;;;;;;;;;-1.40;1.00;;;;;;5044258;28;19908;-78
2024/01/15 00:43:59;;;;;;;;;;;-1.40;1.00;;;;;;5043838;28;19963;-79
2024/01/15 00:46:25;;;;;;;;;;;-1.40;1.00;;;;;;5048422;28;20257;-78
2024/01/15 00:52:00;;;;;;;;;;;-1.40;1.00;;;;;;5047420;28;19982;-78
2024/01/15 00:54:36;;;;;;;;;;;-1.50;1.00;;;;;;5045025;28;19916;-78
2024/01/15 01:00:24;;;;;;;;;;;-1.40;1.00;;;;;;5041271;28;20003;-79
2024/01/15 01:02:54;;;;;;;;;;;-1.40;1.00;;;;;;5035200;28;19905;-79
2024/01/15 01:05:30;;;;;;;;;;;-1.60;1.00;;;;;;5037241;28;19912;-78
2024/01/15 01:08:11;;;;;;;;;;;-1.60;1.00;;;;;;5033423;28;19905;-78
2024/01/15 01:10:45;;;;;;;;;;;-1.50;1.00;;;;;;5041804;28;19908;-79
2024/01/15 01:13:12;;;;;;;;;;;-1.50;1.00;;;;;;5053251;28;19958;-79
2024/01/15 01:15:54;;;;;;;;;;;-1.40;1.00;;;;;;5047087;28;19955;-79
2024/01/15 01:18:51;;;;;;;;;;;-1.50;1.00;;;;;;5038011;28;19955;-78
2024/01/15 01:21:17;;;;;;;;;;;-1.40;1.00;;;;;;5039970;28;20464;-79
2024/01/15 01:23:48;;;;;;;;;;;-1.40;1.00;;;;;;5041837;28;19909;-79
2024/01/15 01:29:18;;;;;;;;;;;-1.50;1.00;;;;;;5039847;28;19919;-78
2024/01/15 01:31:54;;;;;;;;;;;-1.40;1.00;;;;;;5049904;28;19920;-78
2024/01/15 01:34:30;;;;;;;;;;;-1.50;1.00;;;;;;5040848;28;19909;-77
2024/01/15 01:37:17;;;;;;;;;;;-1.50;1.00;;;;;;5044095;28;19908;-78
2024/01/15 01:39:48;;;;;;;;;;;-1.50;1.00;;;;;;5045155;28;19909;-78
2024/01/15 01:42:23;;;;;;;;;;;-1.40;1.00;;;;;;5039405;28;19908;-78
2024/01/15 01:44:49;;;;;;;;;;;-1.40;1.00;;;;;;5047195;28;19985;-78
2024/01/15 01:47:26;;;;;;;;;;;-1.40;1.00;;;;;;5037708;28;20400;-78
2024/01/15 01:50:23;;;;;;;;;;;-1.40;1.00;;;;;;5058723;28;19905;-78
2024/01/15 01:52:49;;;;;;;;;;;-1.40;1.00;;;;;;5053323;28;19909;-78
2024/01/15 01:55:26;;;;;;;;;;;-1.40;1.00;;;;;;5047709;28;19912;-79
2024/01/15 01:57:54;;;;;;;;;;;-1.40;1.00;;;;;;5052348;28;19904;-78
2024/01/15 02:00:20;;;;;;;;;;;-1.30;1.00;;;;;;5048028;28;19987;-78
2024/01/15 02:03:00;;;;;;;;;;;-1.30;1.00;;;;;;5043745;28;19940;-79
2024/01/15 02:05:26;;;;;;;;;;;-1.30;1.00;;;;;;5052930;28;19912;-79
2024/01/15 02:07:52;;;;;;;;;;;-1.30;1.00;;;;;;5051878;28;20292;-79
2024/01/15 02:10:30;;;;;;;;;;;-1.30;1.00;;;;;;5047514;28;19905;-76
2024/01/15 02:12:55;;;;;;;;;;;-1.30;1.00;;;;;;5047396;28;19943;-75
2024/01/15 02:15:21;;;;;;;;;;;-1.30;1.00;;;;;;5035846;28;19913;-75
2024/01/15 02:18:03;;;;;;;;;;;-1.30;1.00;;;;;;5035381;28;19999;-76
2024/01/15 02:23:31;;;;;;;;;;;-1.30;1.00;;;;;;5035142;28;19915;-75
2024/01/15 02:25:57;;;;;;;;;;;-1.30;1.00;;;;;;5033555;28;19999;-79
2024/01/15 02:28:36;;;;;;;;;;;-1.20;1.00;;;;;;5044351;28;19912;-78
2024/01/15 02:31:06;;;;;;;;;;;-1.20;1.00;;;;;;5033302;28;19966;-78
2024/01/15 02:33:42;;;;;;;;;;;-1.20;1.00;;;;;;5042576;28;19963;-78
2024/01/15 02:36:18;;;;;;;;;;;-1.30;1.00;;;;;;5036712;28;19912;-78
2024/01/15 02:38:48;;;;;;;;;;;-1.20;1.00;;;;;;5042568;28;19908;-75
2024/01/15 02:41:18;;;;;;;;;;;-1.20;1.00;;;;;;5036473;28;19912;-75
2024/01/15 02:43:48;;;;;;;;;;;-1.10;1.00;;;;;;5042931;28;19995;-75
2024/01/15 02:46:18;;;;;;;;;;;-1.10;1.00;;;;;;5038395;28;19905;-75
2024/01/15 02:48:48;;;;;;;;;;;-1.10;1.00;;;;;;5034160;28;19908;-76
2024/01/15 02:51:18;;;;;;;;;;;-1.10;1.00;;;;;;5034231;28;19936;-76
2024/01/15 02:53:46;;;;;;;;;;;-1.10;1.00;;;;;;5041469;28;19958;-77
2024/01/15 02:56:12;;;;;;;;;;;-1.20;1.00;;;;;;5032782;28;20441;-75
2024/01/15 02:58:42;;;;;;;;;;;-1.10;1.00;;;;;;5035576;28;19905;-76
2024/01/15 03:01:07;;;;;;;;;;;-1.10;1.00;;;;;;5043170;28;19909;-75
2024/01/15 03:03:33;;;;;;;;;;;-1.10;1.00;;;;;;5045195;28;20346;-75
2024/01/15 03:06:12;;;;;;;;;;;-1.00;1.00;;;;;;5032749;28;19920;-75
2024/01/15 03:08:54;;;;;;;;;;;-1.10;1.00;;;;;;5045773;28;19916;-76
2024/01/15 03:11:24;;;;;;;;;;;-1.10;1.00;;;;;;5033570;28;19909;-78
2024/01/15 03:14:06;;;;;;;;;;;-1.10;1.00;;;;;;5034491;28;19932;-78
2024/01/15 03:16:36;;;;;;;;;;;-1.30;1.00;;;;;;5042243;28;19905;-78
2024/01/15 03:19:06;;;;;;;;;;;-1.20;1.00;;;;;;5037511;28;19909;-78
2024/01/15 03:21:36;;;;;;;;;;;-1.20;1.00;;;;;;5040478;28;19913;-78
2024/01/15 03:24:06;;;;;;;;;;;-1.30;1.00;;;;;;5052269;28;19908;-77
2024/01/15 03:27:00;;;;;;;;;;;-1.30;1.00;;;;;;5035237;28;19916;-78
2024/01/15 03:29:30;;;;;;;;;;;-1.40;1.00;;;;;;5047092;28;19915;-78
2024/01/15 03:32:06;;;;;;;;;;;-1.40;1.00;;;;;;5042377;28;19963;-78
2024/01/15 03:34:54;;;;;;;;;;;-1.30;1.00;;;;;;5037607;28;20359;-78
2024/01/15 03:37:19;;;;;;;;;;;-1.30;1.00;;;;;;5036882;28;19913;-78
2024/01/15 03:39:54;;;;;;;;;;;-1.30;1.00;;;;;;5042777;28;19909;-79
2024/01/15 03:42:24;;;;;;;;;;;-1.30;1.00;;;;;;5051878;28;19909;-78
2024/01/15 03:45:24;;;;;;;;;;;-1.30;1.00;;;;;;5039293;28;19909;-78
2024/01/15 03:48:00;;;;;;;;;;;-1.30;1.00;;;;;;5037258;28;19909;-78
2024/01/15 03:50:30;;;;;;;;;;;-1.30;1.00;;;;;;5049235;28;19908;-79
2024/01/15 03:52:55;;;;;;;;;;;-1.30;1.00;;;;;;5038166;28;19915;-77
2024/01/15 03:58:24;;;;;;;;;;;-1.30;1.00;;;;;;5043324;28;19917;-79
2024/01/15 04:00:54;;;;;;;;;;;-1.20;1.00;;;;;;5049669;28;19909;-78
2024/01/15 04:03:41;;;;;;;;;;;-1.20;1.00;;;;;;5054805;28;19908;-78
2024/01/15 04:06:18;;;;;;;;;;;-1.20;1.00;;;;;;5048985;28;19923;-78
2024/01/15 04:08:54;;;;;;;;;;;-1.20;1.00;;;;;;5052906;28;19916;-78
2024/01/15 04:11:54;;;;;;;;;;;-1.20;1.00;;;;;;5043509;28;19913;-78
2024/01/15 04:14:30;;;;;;;;;;;-1.10;1.00;;;;;;5041773;28;19909;-78
2024/01/15 04:17:00;;;;;;;;;;;-1.10;1.00;;;;;;5041319;28;19913;-78
2024/01/15 04:19:43;;;;;;;;;;;-1.10;1.00;;;;;;5036092;28;19909;-78
2024/01/15 04:22:09;;;;;;;;;;;-1.00;1.00;;;;;;5036722;28;20288;-78
2024/01/15 04:24:48;;;;;;;;;;;-1.10;1.00;;;;;;5039023;28;19912;-78
2024/01/15 04:27:36;;;;;;;;;;;-1.10;1.00;;;;;;5045399;28;20276;-78
2024/01/15 04:30:06;;;;;;;;;;;-1.10;1.00;;;;;;5045961;28;19924;-78
2024/01/15 04:32:54;;;;;;;;;;;-1.20;1.00;;;;;;5046640;28;19935;-78
2024/01/15 04:35:19;;;;;;;;;;;-1.20;1.00;;;;;;5048004;28;19948;-78
2024/01/15 04:37:48;;;;;;;;;;;-1.20;1.00;;;;;;5041965;28;19994;-78
2024/01/15 04:40:14;;;;;;;;;;;-1.20;1.00;;;;;;5039244;28;19948;-76
2024/01/15 04:42:48;;;;;;;;;;;-1.10;1.00;;;;;;5049854;28;20058;-75
2024/01/15 04:45:28;;;;;;;;;;;-1.00;1.00;;;;;;5035744;28;19948;-75
2024/01/15 04:48:00;;;;;;;;;;;-1.10;1.00;;;;;;5055735;28;20244;-76
2024/01/15 04:50:26;;;;;;;;;;;-1.10;1.00;;;;;;5051736;28;19912;-75
2024/01/15 04:52:54;;;;;;;;;;;-1.20;1.00;;;;;;5053635;28;19908;-76
2024/01/15 04:55:19;;;;;;;;;;;-1.20;1.00;;;;;;5041116;28;20268;-76
2024/01/15 04:57:54;;;;;;;;;;;-1.20;1.00;;;;;;5042595;28;19915;-76
2024/01/15 05:00:20;;;;;;;;;;;-1.10;1.00;;;;;;5040444;28;19911;-75
2024/01/15 05:02:45;;;;;;;;;;;-1.10;1.00;;;;;;5055520;28;19904;-76
2024/01/15 05:05:18;;;;;;;;;;;-1.10;1.00;;;;;;5039848;28;19959;-75
2024/01/15 05:07:54;;;;;;;;;;;-1.10;1.00;;;;;;5034060;28;19905;-76
2024/01/15 05:10:36;;;;;;;;;;;-1.00;1.00;;;;;;5043302;28;19921;-78
2024/01/15 05:13:06;;;;;;;;;;;-0.90;1.00;;;;;;5035077;28;19912;-78
2024/01/15 05:15:31;;;;;;;;;;;-0.90;1.00;;;;;;5035125;28;19909;-78
2024/01/15 05:17:57;;;;;;;;;;;-1.00;1.00;;;;;;5034876;28;19916;-78
2024/01/15 05:20:36;;;;;;;;;;;-0.90;1.00;;;;;;5042838;28;19992;-78
2024/01/15 05:23:06;;;;;;;;;;;-0.80;1.00;;;;;;5052235;28;19959;-78
2024/01/15 05:25:32;;;;;;;;;;;-0.80;1.00;;;;;;5035168;28;19905;-78
2024/01/15 05:27:57;;;;;;;;;;;-0.80;1.00;;;;;;5046623;28;19909;-78
2024/01/15 05:30:42;;;;;;;;;;;-0.80;1.00;;;;;;5054156;28;19943;-78
2024/01/15 05:33:12;;;;;;;;;;;-0.70;1.00;;;;;;5034876;28;19912;-79
2024/01/15 05:35:37;;;;;;;;;;;-0.70;1.00;;;;;;5034509;28;19917;-79
2024/01/15 05:38:03;;;;;;;;;;;-0.70;1.00;;;;;;5040877;28;19905;-77
2024/01/15 05:40:36;;;;;;;;;;;-0.70;1.00;;;;;;5045916;28;20058;-78
2024/01/15 05:43:12;;;;;;;;;;;-0.70;1.00;;;;;;5038976;28;19909;-76
2024/01/15 05:45:54;;;;;;;;;;;-0.70;1.00;;;;;;5048347;28;19993;-78
2024/01/15 05:48:24;;;;;;;;;;;-0.60;1.00;;;;;;5044646;28;19952;-77
2024/01/15 05:50:49;;;;;;;;;;;-0.60;1.00;;;;;;5046666;28;19917;-77
2024/01/15 05:53:30;;;;;;;;;;;-0.60;1.00;;;;;;5044926;28;19966;-77
2024/01/15 05:56:01;;;;;;;;;;;-0.60;1.00;;;;;;5047962;28;19991;-77
2024/01/15 05:59:00;;;;;;;;;;;-0.70;1.00;;;;;;5047197;28;19916;-77
2024/01/15 06:01:36;;;;;;;;;;;-0.70;1.00;;;;;;5042494;28;19995;-78
2024/01/15 06:07:06;;;;;;;;;;;-0.70;1.00;;;;;;5041922;28;19915;-77
2024/01/15 06:09:54;;;;;;;;;;;-0.70;1.00;;;;;;5037129;28;19905;-78
2024/01/15 06:12:24;;;;;;;;;;;-0.70;1.00;;;;;;5050736;28;19912;-77
2024/01/15 06:15:00;;;;;;;;;;;-0.70;1.00;;;;;;5052687;28;20347;-77
2024/01/15 06:17:36;;;;;;;;;;;-0.80;1.00;;;;;;5045701;28;19916;-77
2024/01/15 06:23:30;;;;;;;;;;;-0.80;1.00;;;;;;5045254;28;19964;-77
2024/01/15 06:26:12;;;;;;;;;;;-0.80;1.00;;;;;;5047156;28;19913;-77
2024/01/15 06:28:54;;;;;;;;;;;-0.80;1.00;;;;;;5047238;28;19905;-77
2024/01/15 06:31:19;;;;;;;;;;;-0.80;1.00;;;;;;5038811;28;19913;-79
2024/01/15 06:33:55;;;;;;;;;;;-0.70;1.00;;;;;;5040396;28;19909;-76
2024/01/15 06:36:30;;;;;;;;;;;-0.70;1.00;;;;;;5037268;28;19916;-77
2024/01/15 06:38:56;;;;;;;;;;;-0.70;1.00;;;;;;5037749;28;19951;-77
2024/01/15 06:41:21;;;;;;;;;;;-0.70;1.00;;;;;;5039437;28;20022;-77
2024/01/15 06:43:48;;;;;;;;;;;-0.70;1.00;;;;;;5044525;28;19996;-78
2024/01/15 06:46:21;;;;;;;;;;;-0.70;1.00;;;;;;5038496;28;19909;-78
2024/01/15 06:48:46;;;;;;;;;;;-0.70;1.00;;;;;;5037537;28;19912;-78
2024/01/15 06:54:18;;;;;;;;;;;-0.80;1.00;;;;;;5039944;28;20367;-79
2024/01/15 06:56:54;;;;;;;;;;;-0.70;1.00;;;;;;5045585;28;19909;-77
2024/01/15 06:59:30;;;;;;;;;;;-0.70;1.00;;;;;;5044272;28;19911;-77
2024/01/15 07:02:00;;;;;;;;;;;-0.70;1.00;;;;;;5050015;28;19911;-77
2024/01/15 07:04:42;;;;;;;;;;;-0.80;1.00;;;;;;5042528;28;19909;-77
2024/01/15 07:07:07;;;;;;;;;;;-0.80;1.00;;;;;;5042132;28;20541;-77
2024/01/15 07:09:48;;;;;;;;;;;-0.90;1.00;;;;;;5054608;28;19952;-77
2024/01/15 07:12:20;;;;;;;;;;;-0.90;1.00;;;;;;5057492;28;19958;-76
2024/01/15 07:14:46;;;;;;;;;;;-0.90;1.00;;;;;;5049405;28;20000;-76
2024/01/15 07:17:39;;;;;;;;;;;-0.90;1.00;;;;;;5054370;28;19948;-76
2024/01/15 07:20:07;;;;;;;;;;;-0.90;1.00;;;;;;5036384;28;19959;-77
2024/01/15 07:22:33;;;;;;;;;;;-0.80;1.00;;;;;;5049666;28;19913;-76
2024/01/15 07:24:59;;;;;;;;;;;-0.70;1.00;;;;;;5054787;28;19913;-76
2024/01/15 07:27:54;;;;;;;;;;;-0.70;1.00;;;;;;5039893;28;20029;-76
2024/01/15 07:30:30;;;;;;;;;;;-0.70;1.00;;;;;;5050488;28;19959;-76
2024/01/15 07:36:12;;;;;;;;;;;-0.80;1.00;;;;;;5045582;28;19912;-76
2024/01/15 07:38:48;;;;;;;;;;;-0.70;1.00;;;;;;5047225;28;19909;-77
2024/01/15 07:41:14;;;;;;;;;;;-0.70;1.00;;;;;;5037453;28;19909;-76
2024/01/15 07:43:48;;;;;;;;;;;-0.60;1.00;;;;;;5052326;28;20253;-76
2024/01/15 07:46:18;;;;;;;;;;;-0.60;1.00;;;;;;5039541;28;19909;-75
2024/01/15 07:48:48;;;;;;;;;;;-0.60;1.00;;;;;;5048946;28;20379;-75
2024/01/15 07:51:13;;;;;;;;;;;-0.60;1.00;;;;;;5049088;28;20391;-75
2024/01/15 07:53:44;;;;;;;;;;;-0.50;1.00;;;;;;5042743;28;19917;-75
2024/01/15 07:56:10;;;;;;;;;;;-0.50;1.00;;;;;;5036645;28;20368;-75
2024/01/15 07:58:36;;;;;;;;;;;-0.50;1.00;;;;;;5043487;28;19995;-76
2024/01/15 08:01:06;;;;;;;;;;;-0.40;1.00;;;;;;5047605;28;20038;-76
2024/01/15 08:04:00;;;;;;;;;;;-0.40;1.00;;;;;;5052370;28;19909;-76
2024/01/15 08:06:42;;;;;;;;;;;-0.20;1.00;;;;;;5031435;28;19908;-76
2024/01/15 08:09:08;;;;;;;;;;;-0.30;1.00;;;;;;5048874;28;19955;-76
2024/01/15 08:11:34;;;;;;;;;;;-0.20;1.00;;;;;;5048181;28;19909;-77
2024/01/15 08:14:03;;;;;;;;;;;-0.20;1.00;;;;;;5039474;28;19909;-75
2024/01/15 08:16:36;;;;;;;;;;;-0.20;1.00;;;;;;5051470;28;19961;-75
2024/01/15 08:19:02;;;;;;;;;;;-0.10;1.00;;;;;;5043106;28;20394;-75
2024/01/15 08:21:31;;;;;;;;;;;0.00;1.00;;;;;;5047975;28;19921;-75
2024/01/15 08:24:00;;;;;;;;;;;0.00;1.00;;;;;;5047746;28;20000;-75
2024/01/15 08:26:26;;;;;;;;;;;0.00;1.00;;;;;;5043919;28;19949;-75
2024/01/15 08:28:54;;;;;;;;;;;-0.10;1.00;;;;;;5044039;28;19940;-76
2024/01/15 08:31:24;;;;;;;;;;;0.00;1.00;;;;;;5042738;28;19921;-75
2024/01/15 08:33:55;;;;;;;;;;;0.10;1.00;;;;;;5054130;28;19912;-76
2024/01/15 08:36:24;;;;;;;;;;;0.00;1.00;;;;;;5053488;28;19908;-76
2024/01/15 08:39:00;;;;;;;;;;;0.10;1.00;;;;;;5054994;28;19912;-75
2024/01/15 08:41:36;;;;;;;;;;;0.00;1.00;;;;;;5052535;28;19913;-75
2024/01/15 08:44:12;;;;;;;;;;;0.00;1.00;;;;;;5049047;28;19940;-76
2024/01/15 08:47:00;;;;;;;;;;;0.10;1.00;;;;;;5051232;28;19944;-75
2024/01/15 08:49:30;;;;;;;;;;;0.20;1.00;;;;;;5039248;28;20414;-78
2024/01/15 08:52:00;;;;;;;;;;;0.20;1.00;;;;;;5039829;28;19918;-75
2024/01/15 08:54:26;;;;;;;;;;;0.20;1.00;;;;;;5040894;28;19916;-76
2024/01/15 08:56:51;;;;;;;;;;;0.20;1.00;;;;;;5044024;28;19909;-76
2024/01/15 08:59:24;;;;;;;;;;;0.20;1.00;;;;;;5048744;28;19912;-76
2024/01/15 09:01:50;;;;;;;;;;;0.20;1.00;;;;;;5045215;28;20287;-76
2024/01/15 09:04:16;;;;;;;;;;;0.40;1.00;;;;;;5043097;28;20387;-76
2024/01/15 09:06:44;;;;;;;;;;;0.40;1.00;;;;;;5042599;28;19917;-76
2024/01/15 09:09:10;;;;;;;;;;;0.40;1.00;;;;;;5047111;28;19913;-76
2024/01/15 09:11:54;;;;;;;;;;;0.40;1.00;;;;;;5036668;28;19917;-76
2024/01/15 09:14:24;;;;;;;;;;;0.40;1.00;;;;;;5045859;28;19912;-76
2024/01/15 09:17:06;;;;;;;;;;;0.30;1.00;;;;;;5041271;28;20387;-76
2024/01/15 09:19:48;;;;;;;;;;;0.40;1.00;;;;;;5048124;28;19955;-76
2024/01/15 09:22:48;;;;;;;;;;;0.30;1.00;;;;;;5053327;28;19916;-76
2024/01/15 09:25:18;;;;;;;;;;;0.20;1.00;;;;;;5046721;28;19920;-76
2024/01/15 09:27:44;;;;;;;;;;;0.30;1.00;;;;;;5051918;28;19967;-75
2024/01/15 09:30:12;;;;;;;;;;;0.30;1.00;;;;;;5052271;28;20269;-75
2024/01/15 09:32:37;;;;;;;;;;;0.30;1.00;;;;;;5058722;28;19912;-75
2024/01/15 09:35:24;;;;;;;;;;;0.40;1.00;;;;;;5050364;28;19909;-75
2024/01/15 09:37:54;;;;;;;;;;;0.50;1.00;;;;;;5049043;28;19962;-75
2024/01/15 09:40:20;;;;;;;;;;;0.60;1.00;;;;;;5050201;28;19916;-76
2024/01/15 09:42:46;;;;;;;;;;;0.90;1.00;;;;;;5045043;28;19908;-75
2024/01/15 09:45:12;;;;;;;;;;;0.90;1.00;;;;;;5043753;28;19912;-75
2024/01/15 09:47:48;;;;;;;;;;;0.90;1.00;;;;;;5049453;28;19909;-75
2024/01/15 09:50:18;;;;;;;;;;;1.10;1.00;;;;;;5038890;28;19909;-75
2024/01/15 09:52:54;;;;;;;;;;;1.00;1.00;;;;;;5050014;28;19913;-75
2024/01/15 09:55:37;;;;;;;;;;;1.20;1.00;;;;;;5040031;28;19912;-76
2024/01/15 09:58:03;;;;;;;;;;;1.50;1.00;;;;;;5040197;28;20342;-75
2024/01/15 10:00:32;;;;;;;;;;;1.60;1.00;;;;;;5052594;28;19915;-76
2024/01/15 10:03:12;;;;;;;;;;;1.60;1.00;;;;;;5048415;28;19909;-76
2024/01/15 10:06:00;;;;;;;;;;;1.60;1.00;;;;;;5033568;28;19908;-76
2024/01/15 10:08:43;;;;;;;;;;;1.80;1.00;;;;;;5048943;28;20268;-76
2024/01/15 10:11:42;;;;;;;;;;;1.80;1.00;;;;;;5043025;28;19939;-75
2024/01/15 10:14:43;;;;;;;;;;;1.90;1.00;;;;;;5046959;28;19909;-76
2024/01/15 10:20:12;;;;;;;;;;;2.00;1.00;;;;;;5046522;28;19962;-76
2024/01/15 10:23:00;;;;;;;;;;;2.00;1.00;;;;;;5048314;28;19913;-77
2024/01/15 10:25:26;;;;;;;;;;;2.00;1.00;;;;;;5048944;28;19943;-76
2024/01/15 10:34:12;;;;;;;;;;;2.10;1.00;;;;;;5052858;28;19920;-77
2024/01/15 10:36:39;;;;;;;;;;;2.00;1.00;;;;;;5051940;28;19939;-77
2024/01/15 10:39:06;;;;;;;;;;;1.90;1.00;;;;;;5049090;28;19909;-77
2024/01/15 10:44:34;;;;;;;;;;;1.70;1.00;;;;;;5053960;28;19931;-77
2024/01/15 10:47:19;;;;;;;;;;;1.80;1.00;;;;;;5048049;28;19908;-76
2024/01/15 10:52:48;;;;;;;;;;;1.70;1.00;;;;;;5048284;28;19927;-76
2024/01/15 10:55:25;;;;;;;;;;;1.80;1.00;;;;;;5053666;28;20011;-77
2024/01/15 11:01:01;;;;;;;;;;;1.70;1.00;;;;;;5046758;28;19911;-75
2024/01/15 11:03:36;;;;;;;;;;;1.90;1.00;;;;;;5047885;28;19908;-76
2024/01/15 11:06:16;;;;;;;;;;;2.40;1.00;;;;;;5050868;28;19951;-76
2024/01/15 11:08:42;;;;;;;;;;;2.50;1.00;;;;;;5051474;28;19983;-76
2024/01/15 11:11:08;;;;;;;;;;;2.80;1.00;;;;;;5056363;28;19912;-75
2024/01/15 11:13:36;;;;;;;;;;;2.70;1.00;;;;;;5049318;28;20267;-75
2024/01/15 11:16:03;;;;;;;;;;;2.90;1.00;;;;;;5048709;28;20249;-75
2024/01/15 11:18:31;;;;;;;;;;;2.90;1.00;;;;;;5047683;28;19905;-75
2024/01/15 11:21:17;;;;;;;;;;;2.80;1.00;;;;;;5053714;28;19908;-75
2024/01/15 11:23:48;;;;;;;;;;;3.00;1.00;;;;;;5045173;28;20292;-76
2024/01/15 11:26:27;;;;;;;;;;;2.90;1.00;;;;;;5051439;28;19909;-75
2024/01/15 11:29:03;;;;;;;;;;;2.60;1.00;;;;;;5049167;28;19913;-76
2024/01/15 11:31:34;;;;;;;;;;;2.50;1.00;;;;;;5050616;28;19914;-75
2024/01/15 11:33:59;;;;;;;;;;;2.60;1.00;;;;;;5047364;28;19917;-75
2024/01/15 11:39:32;;;;;;;;;;;2.60;1.00;;;;;;5051652;28;20307;-75
2024/01/15 11:45:12;;;;;;;;;;;2.60;1.00;;;;;;5054261;28;19912;-75
2024/01/15 11:47:57;;;;;;;;;;;2.60;1.00;;;;;;5055752;28;19944;-76
2024/01/15 11:50:25;;;;;;;;;;;2.30;1.00;;;;;;5053113;28;20271;-76
2024/01/15 11:53:14;;;;;;;;;;;2.20;1.00;;;;;;5048888;28;19912;-75
2024/01/15 11:55:53;;;;;;;;;;;2.10;1.00;;;;;;5047488;28;19912;-76
2024/01/15 11:58:25;;;;;;;;;;;2.10;1.00;;;;;;5056019;28;20379;-75
2024/01/15 12:07:18;;;;;;;;;;;2.10;1.00;;;;;;5044808;28;19954;-76
2024/01/15 12:10:18;;;;;;;;;;;2.20;1.00;;;;;;5037507;28;19909;-76
2024/01/15 12:16:18;;;;;;;;;;;2.40;1.00;;;;;;5047619;28;19971;-76
2024/01/15 12:18:51;;;;;;;;;;;2.60;1.00;;;;;;5045519;28;20014;-76
2024/01/15 12:21:37;;;;;;;;;;;2.60;1.00;;;;;;5044048;28;19920;-76
2024/01/15 12:24:03;;;;;;;;;;;2.60;1.00;;;;;;5039649;28;19996;-79
2024/01/15 12:29:54;;;;;;;;;;;2.90;1.00;;;;;;5045738;28;20023;-75
2024/01/15 12:32:42;;;;;;;;;;;2.90;1.00;;;;;;5049205;28;19917;-76
2024/01/15 12:35:12;;;;;;;;;;;3.00;1.00;;;;;;5053114;28;20299;-75
2024/01/15 12:37:40;;;;;;;;;;;3.10;1.00;;;;;;5051614;28;20022;-75
2024/01/15 12:40:27;;;;;;;;;;;3.00;1.00;;;;;;5045728;28;19909;-76
2024/01/15 12:46:06;;;;;;;;;;;3.40;1.00;;;;;;5048993;28;19916;-77
2024/01/15 12:51:54;;;;;;;;;;;3.50;1.00;;;;;;5039646;28;19962;-76
2024/01/15 12:54:42;;;;;;;;;;;3.50;1.00;;;;;;5046433;28;19938;-77
2024/01/15 13:00:15;;;;;;;;;;;3.80;1.00;;;;;;5053162;28;20375;-81
2024/01/15 13:05:54;;;;;;;;;;;3.90;1.00;;;;;;5044988;28;19911;-78
2024/01/15 13:08:20;;;;;;;;;;;3.80;1.00;;;;;;5051631;28;19913;-76
2024/01/15 13:19:56;;;;;;;;;;;3.50;1.00;;;;;;5037684;28;20344;-77
2024/01/15 13:25:37;;;;;;;;;;;3.20;1.00;;;;;;5042369;28;20272;-77
2024/01/15 13:28:13;;;;;;;;;;;3.10;1.00;;;;;;5042381;28;19905;-77
2024/01/15 13:31:00;;;;;;;;;;;3.10;1.00;;;;;;5042003;28;19905;-75
2024/01/15 13:36:42;;;;;;;;;;;2.90;1.00;;;;;;5052586;28;20133;-79
2024/01/15 13:45:37;;;;;;;;;;;3.50;1.00;;;;;;5047091;28;20424;-75
2024/01/15 13:54:08;;;;;;;;;;;3.80;1.00;;;;;;5034162;28;19916;-77
2024/01/15 13:56:42;;;;;;;;;;;3.80;1.00;;;;;;5040555;28;20299;-78
2024/01/15 14:02:11;;;;;;;;;;;3.70;1.00;;;;;;5044017;28;19912;-76
2024/01/15 14:05:01;;;;;;;;;;;3.80;1.00;;;;;;5037315;28;19912;-76
2024/01/15 14:07:36;;;;;;;;;;;3.90;1.00;;;;;;5048479;28;20248;-76
2024/01/15 14:13:06;;;;;;;;;;;3.80;1.00;;;;;;5045978;28;19913;-76
2024/01/15 14:15:42;;;;;;;;;;;3.60;1.00;;;;;;5044865;28;19958;-75
2024/01/15 14:18:12;;;;;;;;;;;3.60;1.00;;;;;;5040870;28;19905;-76
2024/01/15 14:20:43;;;;;;;;;;;3.50;1.00;;;;;;5045453;28;19932;-77
2024/01/15 14:23:30;;;;;;;;;;;3.40;1.00;;;;;;5042758;28;19913;-76
2024/01/15 14:26:18;;;;;;;;;;;3.30;1.00;;;;;;5051391;28;19947;-77
2024/01/15 14:28:48;;;;;;;;;;;3.10;1.00;;;;;;5037576;28;19916;-76
2024/01/15 14:34:18;;;;;;;;;;;3.10;1.00;;;;;;5048750;28;19954;-79
2024/01/15 14:39:46;;;;;;;;;;;3.00;1.00;;;;;;5040664;28;19912;-78
2024/01/15 14:45:30;;;;;;;;;;;3.00;1.00;;;;;;5033885;28;20001;-76
2024/01/15 14:48:00;;;;;;;;;;;3.10;1.00;;;;;;5040458;28;19908;-75
2024/01/15 14:50:48;;;;;;;;;;;3.00;1.00;;;;;;5038093;28;19908;-75
2024/01/15 14:53:24;;;;;;;;;;;3.00;1.00;;;;;;5034796;28;19909;-75
2024/01/15 14:58:53;;;;;;;;;;;3.00;1.00;;;;;;5048293;28;20272;-75
2024/01/15 15:07:25;;;;;;;;;;;2.90;1.00;;;;;;5038736;28;20002;-75
2024/01/15 15:10:00;;;;;;;;;;;3.00;1.00;;;;;;5041696;28;20340;-75
2024/01/15 15:12:27;;;;;;;;;;;3.00;1.00;;;;;;5038745;28;20043;-75
2024/01/15 15:15:18;;;;;;;;;;;3.00;1.00;;;;;;5042283;28;20114;-75
2024/01/15 15:20:47;;;;;;;;;;;3.20;1.00;;;;;;5041355;28;19915;-77
2024/01/15 15:26:30;;;;;;;;;;;3.10;1.00;;;;;;5038412;28;19920;-77
2024/01/15 15:29:18;;;;;;;;;;;3.00;1.00;;;;;;5037524;28;19964;-75
2024/01/15 15:35:06;;;;;;;;;;;3.00;1.00;;;;;;5040126;28;19962;-74
2024/01/15 15:37:36;;;;;;;;;;;2.90;1.00;;;;;;5050439;28;19912;-75
2024/01/15 15:40:02;;;;;;;;;;;2.90;1.00;;;;;;5051806;28;19912;-74
2024/01/15 15:42:30;;;;;;;;;;;2.90;1.00;;;;;;5046550;28;19904;-74
2024/01/15 15:44:57;;;;;;;;;;;2.90;1.00;;;;;;5047226;28;19908;-75
2024/01/15 15:47:31;;;;;;;;;;;2.90;1.00;;;;;;5043158;28;20356;-74
2024/01/15 15:49:56;;;;;;;;;;;2.90;1.00;;;;;;5045818;28;19912;-75
2024/01/15 15:52:22;;;;;;;;;;;2.90;1.00;;;;;;5048956;28;19909;-75
2024/01/15 15:55:00;;;;;;;;;;;2.90;1.00;;;;;;5044503;28;19905;-75
2024/01/15 15:57:37;;;;;;;;;;;3.00;1.00;;;;;;5044616;28;19905;-75
2024/01/15 16:00:13;;;;;;;;;;;3.00;1.00;;;;;;5036610;28;19915;-75
2024/01/15 16:02:42;;;;;;;;;;;3.00;1.00;;;;;;5044270;28;19909;-75
2024/01/15 16:05:09;;;;;;;;;;;3.00;1.00;;;;;;5046219;28;19916;-75
2024/01/15 16:07:54;;;;;;;;;;;3.00;1.00;;;;;;5050525;28;19953;-75
2024/01/15 16:19:36;;;;;;;;;;;3.00;1.00;;;;;;5041501;28;19958;-77
2024/01/15 16:22:03;;;;;;;;;;;3.00;1.00;;;;;;5041765;28;19916;-75
2024/01/15 16:27:32;;;;;;;;;;;2.90;1.00;;;;;;5036308;28;19951;-80
2024/01/15 16:33:13;;;;;;;;;;;2.80;1.00;;;;;;5055415;28;19943;-85
2024/01/15 16:35:54;;;;;;;;;;;2.80;1.00;;;;;;5046971;28;19909;-79
2024/01/15 16:41:31;;;;;;;;;;;2.60;1.00;;;;;;5045006;28;19912;-76
2024/01/15 16:44:00;;;;;;;;;;;2.60;1.00;;;;;;5042330;28;19905;-75
2024/01/15 16:46:26;;;;;;;;;;;2.50;1.00;;;;;;5035581;28;19905;-74
2024/01/15 16:49:18;;;;;;;;;;;2.40;1.00;;;;;;5038567;28;19987;-75
2024/01/15 16:54:47;;;;;;;;;;;2.40;1.00;;;;;;5048650;28;19959;-75
2024/01/15 16:57:12;;;;;;;;;;;2.40;1.00;;;;;;5058587;28;19909;-77
2024/01/15 17:00:00;;;;;;;;;;;2.40;1.00;;;;;;5045465;28;19954;-76
2024/01/15 17:02:30;;;;;;;;;;;2.50;1.00;;;;;;5044683;28;19943;-78
2024/01/15 17:05:18;;;;;;;;;;;2.40;1.00;;;;;;5060759;28;19948;-75
2024/01/15 17:07:48;;;;;;;;;;;2.50;1.00;;;;;;5049876;28;19905;-77
2024/01/15 17:13:17;;;;;;;;;;;2.50;1.00;;;;;;5049861;28;19998;-83
2024/01/15 17:18:51;;;;;;;;;;;2.60;1.00;;;;;;5035378;28;19915;-85
2024/01/15 17:21:19;;;;;;;;;;;2.60;1.00;;;;;;5040161;28;19913;-72
2024/01/15 17:27:18;;;;;;;;;;;2.60;1.00;;;;;;5054368;28;20267;-82
2024/01/15 17:29:48;;;;;;;;;;;2.60;1.00;;;;;;5051573;28;19916;-80
2024/01/15 17:35:17;;;;;;;;;;;2.60;1.00;;;;;;5040290;28;19916;-79
2024/01/15 17:43:48;;;;;;;;;;;2.50;1.00;;;;;;5047968;28;20451;-78
2024/01/15 17:49:26;;;;;;;;;;;2.40;1.00;;;;;;5047292;28;19916;-75
2024/01/15 17:54:55;;;;;;;;;;;2.40;1.00;;;;;;5045863;28;19916;-80
2024/01/15 18:00:23;;;;;;;;;;;2.40;1.00;;;;;;5035082;28;20267;-81
2024/01/15 18:12:00;;;;;;;;;;;2.30;1.00;;;;;;5041188;28;19919;-79
2024/01/15 18:14:38;;;;;;;;;;;2.20;1.00;;;;;;5052709;28;20256;-79
2024/01/15 18:29:18;;;;;;;;;;;1.90;1.00;;;;;;5036988;28;19952;-78
2024/01/15 18:31:48;;;;;;;;;;;2.00;1.00;;;;;;5035383;28;19935;-77
2024/01/15 18:37:17;;;;;;;;;;;1.90;1.00;;;;;;5049382;28;19923;-79
2024/01/15 18:48:53;;;;;;;;;;;1.90;1.00;;;;;;5039749;28;19911;-77
2024/01/15 18:51:22;;;;;;;;;;;1.90;1.00;;;;;;5040028;28;19963;-78
2024/01/15 18:56:50;;;;;;;;;;;2.00;1.00;;;;;;5050220;28;19916;-82
2024/01/15 18:59:48;;;;;;;;;;;2.10;1.00;;;;;;5040788;28;19905;-79
2024/01/15 19:08:24;;;;;;;;;;;2.00;1.00;;;;;;5045406;28;19958;-78